East Troy, Wisconsin
Current Conditions -  °F | °C
As of 12:55 PM on Friday 24 Oct 2014 (Local Time) from KBUU Reporting Station
Overcast Overcast  
Wind Chill: 52°   Ceiling: 500
Heat Index: 52°   Visibility: 7mi
Dew Point: 50°   Wind: 3mph
Humidity: 91%   Direction: 260°W
Pressure: 30.01"   Gusts: NA
Location:  42.79°N, 88.41°W
Report Text: KBUU 241755Z AUTO 26003KT 7SM OVC005 11/10 A3001 RMK AO2 T01120098 10112 20087
Loading
Personal Weather Stations






























Interactive Weather Map
Tropical Storm Tracking
New forecast layout! Learn more

10-Day Weather Forecast

Advertisements
Track Severe Weather on mobile